DW7783 Weather Reports


Display with metric or nautical units.
time (UTC)temp
F
wind
direction
speed
MPH
gust
MPH
rain 1hr
in
rain 24hr
in
rain mn
in
humidity
%
barometer
mb
20181015180127 58 244 3.0 0.0 0.00 0.00 0.00 59 1008.0
20181015174557 59 244 6.0 0.0 0.00 0.00 0.00 58 1008.5
20181015173131 59 249 6.0 0.0 0.00 0.00 0.00 56 1008.3
20181015171549 59 251 5.0 0.0 0.00 0.00 0.00 55 1007.9
20181015170124 60 219 0.0 0.0 0.00 0.00 0.00 52 1007.5
20181015164623 61 219 0.0 0.0 0.00 0.00 0.00 44 1007.3
20181015163115 61 219 4.0 0.0 0.00 0.00 0.00 43 1007.5
20181015161600 62 219 5.0 0.0 0.00 0.00 0.00 41 1007.7
20181015160108 63 220 3.0 0.0 0.00 0.00 0.00 38 1007.4
20181015154603 62 220 3.0 0.0 0.00 0.00 0.00 40 1007.2
20181015153056 62 222 5.0 0.0 0.00 0.00 0.00 40 1007.8
20181015151626 64 221 3.0 0.0 0.00 0.00 0.00 40 1007.6
20181015150049 62 237 5.0 0.0 0.00 0.00 0.00 44 1007.6
20181015144620 63 251 7.0 0.0 0.00 0.00 0.00 45 1007.6
20181015143110 64 192 4.0 0.0 0.00 0.00 0.00 43 1007.4
20181015141547 64 213 4.0 0.0 0.00 0.00 0.00 43 1007.2
20181015140115 63 195 4.0 0.0 0.00 0.00 0.00 45 1007.2
20181015134539 63 181 5.0 0.0 0.00 0.00 0.00 43 1007.2
20181015133044 63 158 6.0 0.0 0.00 0.00 0.00 43 1007.4
20181015131600 61 223 5.0 0.0 0.00 0.00 0.00 45 1008.0
20181015130038 61 208 5.0 0.0 0.00 0.00 0.00 48 1008.2
20181015124534 61 249 5.0 0.0 0.00 0.00 0.00 47 1008.7
20181015123037 59 252 5.0 0.0 0.00 0.00 0.00 48 1009.0
20181015121557 61 229 4.0 0.0 0.00 0.00 0.00 46 1009.2
20181015120034 59 237 1.0 0.0 0.00 0.00 0.00 50 1009.4
20181015114516 0 0.0 0.0 0.00 0.00 0.00
20181015113052 58 237 4.0 0.0 0.00 0.00 0.00 53 1009.7
20181015111522 58 236 4.0 0.0 0.00 0.00 0.00 53 1009.9
20181015110019 57 248 5.0 0.0 0.00 0.00 0.00 55 1009.9
20181015104517 58 193 3.0 0.0 0.00 0.00 0.00 53 1009.8
20181015103005 57 248 3.0 0.0 0.00 0.00 0.00 55 1010.0
20181015101509 56 256 4.0 0.0 0.00 0.00 0.00 56 1010.0
20181015100009 57 200 3.0 0.0 0.00 0.00 0.00 55 1010.0
20181015094645 55 200 3.0 0.0 0.00 0.00 0.00 57 1010.2
20181015093231 54 200 2.0 0.0 0.00 0.00 0.00 69 1010.3
20181015091612 53 200 3.0 0.0 0.00 0.00 0.00 73 1010.4
20181015090133 52 194 3.0 0.0 0.00 0.00 0.00 75 1010.4
20181015084652 52 165 4.0 0.0 0.00 0.00 0.00 77 1010.3
20181015083059 51 135 1.0 0.0 0.00 0.00 0.00 78 1010.5
20181015081715 50 128 3.0 0.0 0.00 0.00 0.00 78 1010.5
20181015080129 50 128 0.0 0.0 0.00 0.00 0.00 78 1010.2
20181015074642 50 128 0.0 0.0 0.00 0.00 0.00 82 1010.3
20181015073127 47 287 0.0 0.0 0.00 0.00 0.00 88 1010.4
20181015071637 45 287 1.0 0.0 0.00 0.00 0.00 90 1010.4
20181015070101 45 286 0.0 0.0 0.00 0.00 0.00 90 1010.3
20181015064543 44 286 0.0 0.0 0.00 0.00 0.00 89 1010.2
20181015063046 44 286 0.0 0.0 0.00 0.00 0.00 89 1010.2
20181015061551 45 286 0.0 0.0 0.00 0.00 0.00 89 1010.1
20181015060030 45 286 0.0 0.0 0.00 0.00 0.00 89 1010.1
20181015054530 45 286 1.0 0.0 0.00 0.00 0.00 88 1010.1
20181015051553 46 279 0.0 0.0 0.00 0.00 0.00 87 1010.1
20181015050102 46 279 0.0 0.0 0.00 0.00 0.00 86 1009.6
20181015044609 46 279 0.0 0.0 0.00 0.00 0.00 86 1009.6
20181015043115 47 279 1.0 0.0 0.00 0.00 0.00 86 1009.3
20181015041609 47 279 1.0 0.0 0.00 0.00 0.00 86 1009.2
20181015040103 47 279 0.0 0.0 0.00 0.00 0.00 85 1009.1
20181015034619 47 279 0.0 0.0 0.00 0.00 0.00 85 1009.1
20181015033054 47 279 0.0 0.0 0.00 0.00 0.00 84 1009.1
20181015031559 47 279 0.0 0.0 0.00 0.00 0.00 83 1009.2
20181015030054 47 279 0.0 0.0 0.00 0.00 0.00 82 1009.4
20181015024550 48 279 0.0 0.0 0.00 0.00 0.00 80 1009.3
20181015023101 49 279 1.0 0.0 0.00 0.00 0.00 79 1009.4
20181015021612 49 279 1.0 0.0 0.00 0.00 0.00 79 1009.4
20181015020031 49 279 2.0 0.0 0.00 0.00 0.00 78 1009.3
20181015014546 49 279 2.0 0.0 0.00 0.00 0.00 77 1009.6
20181015013041 49 276 2.0 0.0 0.00 0.00 0.00 77 1009.5
20181015011530 49 273 1.0 0.0 0.00 0.00 0.00 78 1009.5
20181015010028 50 272 2.0 0.0 0.00 0.00 0.00 76 1009.3
20181015004530 50 268 1.0 0.0 0.00 0.00 0.00 76 1009.4
20181015003013 49 266 1.0 0.0 0.00 0.00 0.00 76 1009.3
20181015001518 49 266 1.0 0.0 0.00 0.00 0.00 77 1009.3
20181015000014 50 266 1.0 0.0 0.00 0.00 0.00 76 1009.4
20181014234515 50 266 1.0 0.0 0.00 0.00 0.00 74 1009.5
20181014233009 50 266 1.0 0.0 0.00 0.00 0.00 75 1009.6
20181014231509 50 266 0.0 0.0 0.00 0.00 0.00 75 1009.8
20181014230024 51 266 2.0 0.0 0.00 0.00 0.00 73 1009.7
20181014224503 51 271 1.0 0.0 0.00 0.00 0.00 71 1009.8
20181014221606 51 275 1.0 0.0 0.00 0.00 0.00 73 1010.0
20181014220340 51 275 1.0 0.0 0.00 0.00 0.00 72 1010.0
20181014214705 52 275 0.0 0.0 0.00 0.00 0.35 71 1009.8
20181014213213 52 276 0.0 0.0 0.00 0.00 0.35 68 1009.8
20181014211632 52 277 0.0 0.0 0.00 0.00 0.35 70 1009.6
20181014210243 52 276 0.0 0.0 0.00 0.00 0.35 71 1009.3
20181014204722 52 276 0.0 0.0 0.00 0.00 0.35 71 1009.3
20181014203122 52 276 0.0 0.0 0.00 0.00 0.35 68 1009.3
20181014201643 52 276 0.0 0.0 0.00 0.00 0.35 69 1009.2
20181014200126 53 276 0.0 0.0 0.00 0.00 0.35 65 1008.6
20181014194756 53 276 0.0 0.0 0.00 0.00 0.35 66 1008.6
20181014193119 53 276 0.0 0.0 0.00 0.00 0.35 66 1008.6
20181014191714 53 275 0.0 0.0 0.00 0.00 0.35 64 1008.6
20181014190134 53 271 0.0 0.0 0.00 0.00 0.35 64 1008.2
20181014184612 54 271 0.0 0.0 0.00 0.00 0.35 63 1008.3
20181014183058 54 270 1.0 0.0 0.00 0.00 0.35 63 1008.2
20181014181643 54 269 0.0 0.0 0.00 0.00 0.35 62 1007.9